Lisa — PCTI — position and weather

sailwx.info

Track history (hours):
 
Tides and Currents Weather Stations Pressure Air Temp Water Temp Dewpoint Dewpoint Depression Visibility Wind Speed Wind Dir Waves Ship Positions

Lisa

Last reported at 2017-Dec-24 02:28 UTC. Time now 2018-Jan-19 03:52 UTC.
Position N 38°30' W 010°04'.
Warning: this ship's position is 26 days out of date.

Length 108 m; draft 7.1 m.

Type: Cargo ship. MMSI: 246922000.

Date/timePositionNaut miles runAvg speedWind from/ knotsBaromVisibWave heightAir tempDewpointWater temp
2017-Dec-24 02:28N 38°30' W 010°04'1410.4
2017-Dec-24 01:07N 38°44' W 010°07'411.0
2017-Dec-24 00:47N 38°48' W 010°07'310.7
2017-Dec-24 00:30N 38°51' W 010°07'510.8
2017-Dec-24 00:00N 38°56' W 010°07'510.9
2017-Dec-23 23:30N 39°01' W 010°07'611.0
2017-Dec-23 23:00N 39°07' W 010°07'510.9
2017-Dec-23 22:30N 39°12' W 010°07'510.5
2017-Dec-23 22:00N 39°18' W 010°07'510.7
2017-Dec-23 21:30N 39°23' W 010°07'910.6
2017-Dec-23 20:37N 39°32' W 010°07'50110.0
2017-Dec-21 18:43N 47°33' W 006°53'7 9.3
2017-Dec-21 17:59N 47°39' W 006°48'9 8.7
2017-Dec-21 16:58N 47°47' W 006°42'8 8.4
2017-Dec-21 15:59N 47°55' W 006°37'9 8.2
2017-Dec-21 14:54N 48°03' W 006°31'8 8.4
2017-Dec-21 13:59N 48°09' W 006°25'9 9.0
2017-Dec-21 12:58N 48°17' W 006°18'11 9.8
2017-Dec-21 11:53N 48°26' W 006°10'1010.4
2017-Dec-21 10:53N 48°35' W 006°02'1810.5
2017-Dec-21 09:10N 48°51' W 005°48'310.1
2017-Dec-21 08:54N 48°53' W 005°46'9 9.3
2017-Dec-21 07:56N 48°59' W 005°36'4 8.7
2017-Dec-21 07:30N 49°01' W 005°31'4 8.4
2017-Dec-21 06:58N 49°04' W 005°25'8 7.8
2017-Dec-21 05:54N 49°08' W 005°14'3 7.6
2017-Dec-21 05:29N 49°09' W 005°10'4 7.6
2017-Dec-21 04:59N 49°11' W 005°05'4 7.7
2017-Dec-21 04:30N 49°13' W 005°00'4 7.7
2017-Dec-21 03:58N 49°15' W 004°55'4 8.1
2017-Dec-21 03:29N 49°17' W 004°50'5 8.6
2017-Dec-21 02:56N 49°20' W 004°44'5 8.9
2017-Dec-21 02:20N 49°23' W 004°37'3 9.5
2017-Dec-21 01:59N 49°24' W 004°32'12 9.9
2017-Dec-21 00:48N 49°30' W 004°17'810.2
2017-Dec-20 23:59N 49°35' W 004°06'10 9.9
2017-Dec-20 22:59N 49°40' W 003°53'16 9.0
2017-Dec-20 21:11N 49°48' W 003°31'3 8.3
2017-Dec-20 20:49N 49°49' W 003°27'3 8.0
2017-Dec-20 20:30N 49°50' W 003°23'4 7.9
2017-Dec-20 20:00N 49°52' W 003°18'4 7.9
2017-Dec-20 19:31N 49°54' W 003°13'8 8.1
2017-Dec-20 18:34N 49°58' W 003°02'0 8.6
2017-Dec-20 18:30N 49°58' W 003°02'4 8.8
2017-Dec-20 18:00N 50°00' W 002°56'5 9.5
2017-Dec-20 17:28N 50°02' W 002°48'510.2
2017-Dec-20 17:00N 50°03' W 002°41'510.9
2017-Dec-20 16:30N 50°05' W 002°33'611.6
2017-Dec-20 16:00N 50°06' W 002°24'612.3
2017-Dec-20 15:30N 50°08' W 002°15'612.8
2017-Dec-20 15:00N 50°10' W 002°05'713.0
2017-Dec-20 14:30N 50°12' W 001°56'612.8
2017-Dec-20 14:00N 50°14' W 001°46'1111.9
2017-Dec-20 13:03N 50°17' W 001°29'211.0
2017-Dec-20 12:50N 50°17' W 001°26'510.6
2017-Dec-20 12:24N 50°18' W 001°19'37 7.8
2017-Dec-20 07:44N 50°28' W 000°23'2 8.8
2017-Dec-20 07:30N 50°29' W 000°20'5 9.2
2017-Dec-20 07:00N 50°30' W 000°13'5 9.8
2017-Dec-20 06:31N 50°31' W 000°06'510.4
2017-Dec-20 06:01N 50°33' E 000°02'511.0
2017-Dec-20 05:31N 50°34' E 000°10'611.4
2017-Dec-20 05:00N 50°36' E 000°19'611.5
2017-Dec-20 04:31N 50°37' E 000°28'611.1
2017-Dec-20 04:00N 50°39' E 000°36'510.9
2017-Dec-20 03:30N 50°42' E 000°43'510.4
2017-Dec-20 03:01N 50°45' E 000°50'5 9.9
2017-Dec-20 02:30N 50°48' E 000°56'6 9.4
2017-Dec-20 01:55N 50°51' E 001°03'7 8.7
2017-Dec-20 01:03N 50°56' E 001°12'1 8.4
2017-Dec-20 00:58N 50°57' E 001°13'4 8.2
2017-Dec-20 00:29N 50°59' E 001°18'4 8.0
2017-Dec-20 00:00N 51°02' E 001°23'4 8.7
2017-Dec-19 23:30N 51°04' E 001°28'5 9.8
2017-Dec-19 23:01N 51°08' E 001°34'510.7
2017-Dec-19 22:31N 51°11' E 001°40'611.3
2017-Dec-19 22:01N 51°15' E 001°46'612.6
2017-Dec-19 21:31N 51°21' E 001°50'612.5
2017-Dec-19 21:00N 51°27' E 001°54'611.9
2017-Dec-19 20:30N 51°31' E 002°01'611.5
2017-Dec-19 20:00N 51°36' E 002°07'611.3
2017-Dec-19 19:30N 51°40' E 002°13'610.8
2017-Dec-19 18:56N 51°44' E 002°19'510.4
2017-Dec-19 18:30N 51°47' E 002°25'6 9.8
2017-Dec-19 17:55N 51°52' E 002°31'612.4
2017-Dec-19 17:28N 51°56' E 002°37'3 6.0
2017-Dec-19 17:01N 51°58' E 002°39'5 8.7
2017-Dec-19 16:28N 52°02' E 002°44'7 8.4
2017-Dec-19 15:39N 52°07' E 002°51'2 8.4
2017-Dec-19 15:29N 52°08' E 002°53'4 8.2
2017-Dec-19 14:56N 52°12' E 002°58'5 8.1
2017-Dec-19 14:21N 52°15' E 003°03'3 8.1
2017-Dec-19 13:59N 52°18' E 003°06'4 8.6
2017-Dec-19 13:30N 52°21' E 003°10'5 9.1
2017-Dec-19 13:00N 52°25' E 003°14'5 9.6
2017-Dec-19 12:30N 52°28' E 003°19'510.1
2017-Dec-19 12:00N 52°32' E 003°24'510.3
2017-Dec-19 11:28N 52°37' E 003°30'510.6
2017-Dec-19 11:00N 52°40' E 003°35'510.8
2017-Dec-19 10:30N 52°45' E 003°40'611.0
2017-Dec-19 09:57N 52°49' E 003°47'1610.6
2017-Dec-19 08:29N 53°00' E 004°05'7 9.8
2017-Dec-19 07:47N 53°05' E 004°13'3 9.4
2017-Dec-19 07:30N 53°07' E 004°17'6 9.0
2017-Dec-19 06:52N 53°11' E 004°23'20 8.5
2017-Dec-19 04:29N 53°30' E 004°35'6 9.5
2017-Dec-19 03:53N 53°35' E 004°38'134 9.7
2017-Dec-18 14:09N 55°32' E 006°30'43 8.8
2017-Dec-18 09:17N 56°11' E 007°03'2 8.6
2017-Dec-18 09:00N 56°13' E 007°04'4 8.1
2017-Dec-18 08:30N 56°17' E 007°07'4 8.1
2017-Dec-18 08:00N 56°21' E 007°10'4 8.1
2017-Dec-18 07:29N 56°24' E 007°14'4 8.4
2017-Dec-18 06:59N 56°28' E 007°15'4 7.5
2017-Dec-18 06:29N 56°31' E 007°20'3 6.8
2017-Dec-18 05:59N 56°34' E 007°24'3 5.9
2017-Dec-18 05:30N 56°36' E 007°27'3 5.6
2017-Dec-18 05:00N 56°39' E 007°30'3 5.2
2017-Dec-18 04:30N 56°41' E 007°33'2 4.8
2017-Dec-18 04:00N 56°43' E 007°35'3 4.9
2017-Dec-18 03:26N 56°45' E 007°39'3 5.0
2017-Dec-18 02:54N 56°46' E 007°43'113 7.9
2017-Dec-17 12:32N 57°48' E 010°39'010.1
2017-Dec-17 12:30N 57°48' E 010°39'5 9.7
2017-Dec-17 12:00N 57°47' E 010°48'510.2
2017-Dec-17 11:31N 57°44' E 010°55'510.2
2017-Dec-17 11:00N 57°40' E 011°02'510.4
2017-Dec-17 10:30N 57°37' E 011°09'510.4
2017-Dec-17 10:00N 57°33' E 011°16'510.6
2017-Dec-17 09:30N 57°29' E 011°23'510.4
2017-Dec-17 09:00N 57°25' E 011°28'510.1
2017-Dec-17 08:30N 57°20' E 011°31'510.0
2017-Dec-17 08:00N 57°15' E 011°34'510.1
2017-Dec-17 07:30N 57°10' E 011°37'2010.0
2017-Dec-17 05:29N 56°51' E 011°50'40 9.3
2017-Dec-17 01:11N 56°14' E 012°16'210.2
2017-Dec-17 01:00N 56°13' E 012°18'510.2
2017-Dec-17 00:31N 56°10' E 012°26'510.7
2017-Dec-17 00:00N 56°07' E 012°33'510.9
2017-Dec-16 23:31N 56°03' E 012°40'510.1
2017-Dec-16 23:01N 55°58' E 012°43'5 9.9
2017-Dec-16 22:30N 55°53' E 012°44'510.3
2017-Dec-16 22:00N 55°48' E 012°43'510.3
2017-Dec-16 21:30N 55°43' E 012°41'510.2
2017-Dec-16 21:00N 55°38' E 012°42'5 9.6
2017-Dec-16 20:31N 55°33' E 012°43'5 9.5
2017-Dec-16 20:00N 55°28' E 012°43'5 9.5
2017-Dec-16 19:30N 55°23' E 012°42'5 9.3
2017-Dec-16 19:00N 55°19' E 012°42'4 8.8
2017-Dec-16 18:30N 55°17' E 012°49'5 9.3
2017-Dec-16 18:00N 55°16' E 012°57'5 9.5
2017-Dec-16 17:30N 55°16' E 013°06'5 9.5
2017-Dec-16 17:00N 55°16' E 013°14'5 9.6
2017-Dec-16 16:30N 55°15' E 013°22'17 9.4
2017-Dec-16 14:40N 55°14' E 013°53'3 9.6
2017-Dec-16 14:21N 55°14' E 013°58'5 9.5
2017-Dec-16 13:48N 55°14' E 014°07'4 9.3
2017-Dec-16 13:20N 55°14' E 014°15'4 9.1
2017-Dec-16 12:55N 55°16' E 014°20'410.0
2017-Dec-16 12:30N 55°20' E 014°24'610.0
2017-Dec-16 11:52N 55°25' E 014°31'3 9.9
2017-Dec-16 11:30N 55°27' E 014°35'6 9.9
2017-Dec-16 10:54N 55°30' E 014°44'5 9.8
2017-Dec-16 10:21N 55°33' E 014°52'12 9.5
2017-Dec-16 09:05N 55°39' E 015°11'1 9.4
2017-Dec-16 09:00N 55°39' E 015°12'5 9.6
2017-Dec-16 08:30N 55°42' E 015°19'5 9.6
2017-Dec-16 08:00N 55°44' E 015°27'5 9.8
2017-Dec-16 07:30N 55°46' E 015°35'5 9.7
2017-Dec-16 07:00N 55°49' E 015°42'5 9.4
2017-Dec-16 06:30N 55°51' E 015°49'5 9.5
2017-Dec-16 06:00N 55°54' E 015°57'5 9.7
2017-Dec-16 05:30N 55°56' E 016°04'5 9.7
2017-Dec-16 05:00N 55°59' E 016°12'5 9.7
2017-Dec-16 04:30N 56°01' E 016°19'5 9.7
2017-Dec-16 04:00N 56°03' E 016°27'5 9.8
2017-Dec-16 03:30N 56°06' E 016°34'510.0
2017-Dec-16 03:00N 56°09' E 016°41'67 6.9
2017-Dec-15 17:17N 57°16' E 016°39'3 9.2
2017-Dec-15 17:00N 57°16' E 016°35'3 6.9
2017-Dec-15 16:30N 57°16' E 016°28'0 0.6
2017-Dec-15 15:58N 57°16' E 016°28'0 0.0
2017-Dec-15 15:28N 57°16' E 016°28'0 0.0
2017-Dec-15 14:58N 57°16' E 016°28'0 0.0
2017-Dec-15 14:25N 57°16' E 016°28'0 0.0
2017-Dec-15 13:58N 57°16' E 016°28'0 0.0
2017-Dec-15 13:28N 57°16' E 016°28'0 0.0
2017-Dec-15 12:58N 57°16' E 016°28'0 0.0
2017-Dec-15 12:28N 57°16' E 016°28'0 0.0
2017-Dec-15 11:58N 57°16' E 016°28'0 0.0
2017-Dec-15 11:28N 57°16' E 016°28'0 0.0
2017-Dec-15 10:58N 57°16' E 016°28'0 0.0
2017-Dec-15 10:28N 57°16' E 016°28'0 0.0
2017-Dec-15 09:58N 57°16' E 016°28'0 0.0
2017-Dec-15 09:28N 57°16' E 016°28'0 0.0
2017-Dec-15 08:58N 57°16' E 016°28'0 0.0
2017-Dec-15 08:28N 57°16' E 016°28'0 0.0
2017-Dec-15 07:58N 57°16' E 016°28'0 0.0
2017-Dec-15 07:28N 57°16' E 016°28'0 0.0
2017-Dec-15 06:58N 57°16' E 016°28'0 0.0
2017-Dec-15 06:28N 57°16' E 016°28'0 0.0
2017-Dec-15 05:58N 57°16' E 016°28'0 0.0
2017-Dec-15 05:28N 57°16' E 016°28'0 0.0
2017-Dec-15 04:58N 57°16' E 016°28'0 0.0
2017-Dec-15 04:28N 57°16' E 016°28'0 0.0
2017-Dec-15 03:58N 57°16' E 016°28'0 0.0
2017-Dec-15 02:28N 57°16' E 016°28'0 0.0
2017-Dec-15 00:58N 57°16' E 016°28'0 0.0
2017-Dec-15 00:28N 57°16' E 016°28'0 0.0
2017-Dec-14 18:28N 57°16' E 016°28'0 0.0
2017-Dec-14 17:58N 57°16' E 016°28'0 0.0
2017-Dec-14 17:28N 57°16' E 016°28'0 0.0
2017-Dec-14 16:55N 57°16' E 016°28'0 0.0
2017-Dec-14 16:28N 57°16' E 016°28'0 0.0
2017-Dec-14 15:58N 57°16' E 016°28'0 0.0
2017-Dec-14 14:58N 57°16' E 016°28'0 0.0
2017-Dec-14 14:28N 57°16' E 016°28'0 0.0
2017-Dec-14 13:58N 57°16' E 016°28'0 0.0
2017-Dec-14 13:28N 57°16' E 016°28'0 0.0
2017-Dec-14 12:58N 57°16' E 016°28'0 0.0
2017-Dec-14 12:28N 57°16' E 016°28'0 0.0
2017-Dec-14 11:58N 57°16' E 016°28'0 0.0
2017-Dec-14 11:28N 57°16' E 016°28'0 0.0
2017-Dec-14 10:58N 57°16' E 016°28'0 0.0
2017-Dec-14 10:28N 57°16' E 016°28'0 0.0
2017-Dec-14 09:58N 57°16' E 016°28'0 0.0
2017-Dec-14 09:28N 57°16' E 016°28'0 0.0
2017-Dec-14 08:58N 57°16' E 016°28'0 0.0
2017-Dec-14 08:28N 57°16' E 016°28'0 0.0
2017-Dec-14 07:58N 57°16' E 016°28'0 0.0
2017-Dec-14 07:28N 57°16' E 016°28'0 0.0
2017-Dec-14 06:58N 57°16' E 016°28'0 0.0
2017-Dec-14 06:28N 57°16' E 016°28'0 0.0
2017-Dec-14 05:58N 57°16' E 016°28'0 0.0
2017-Dec-14 05:28N 57°16' E 016°28'0 0.0
2017-Dec-14 04:58N 57°16' E 016°28'0 0.0
2017-Dec-14 04:28N 57°16' E 016°28'0 0.0
2017-Dec-14 03:58N 57°16' E 016°28'0 0.0
2017-Dec-14 03:28N 57°16' E 016°28'0 0.0
2017-Dec-14 02:58N 57°16' E 016°28'0 0.0
2017-Dec-14 02:28N 57°16' E 016°28'  
Track history (hours):
 
Tides and Currents Weather Stations Pressure Air Temp Water Temp Dewpoint Dewpoint Depression Visibility Wind Speed Wind Dir Waves Ship Positions

Lisa

Last reported at 2017-Dec-24 02:28 UTC. Time now 2018-Jan-19 03:52 UTC.
Position N 38°30' W 010°04'.
Warning: this ship's position is 26 days out of date.

Length 108 m; draft 7.1 m.

Type: Cargo ship. MMSI: 246922000.

Date/timePositionNaut miles runAvg speedWind from/ knotsBaromVisibWave heightAir tempDewpointWater temp
2017-Dec-24 02:28N 38°30' W 010°04'1410.4
2017-Dec-24 01:07N 38°44' W 010°07'411.0
2017-Dec-24 00:47N 38°48' W 010°07'310.7
2017-Dec-24 00:30N 38°51' W 010°07'510.8
2017-Dec-24 00:00N 38°56' W 010°07'510.9
2017-Dec-23 23:30N 39°01' W 010°07'611.0
2017-Dec-23 23:00N 39°07' W 010°07'510.9
2017-Dec-23 22:30N 39°12' W 010°07'510.5
2017-Dec-23 22:00N 39°18' W 010°07'510.7
2017-Dec-23 21:30N 39°23' W 010°07'910.6
2017-Dec-23 20:37N 39°32' W 010°07'50110.0
2017-Dec-21 18:43N 47°33' W 006°53'7 9.3
2017-Dec-21 17:59N 47°39' W 006°48'9 8.7
2017-Dec-21 16:58N 47°47' W 006°42'8 8.4
2017-Dec-21 15:59N 47°55' W 006°37'9 8.2
2017-Dec-21 14:54N 48°03' W 006°31'8 8.4
2017-Dec-21 13:59N 48°09' W 006°25'9 9.0
2017-Dec-21 12:58N 48°17' W 006°18'11 9.8
2017-Dec-21 11:53N 48°26' W 006°10'1010.4
2017-Dec-21 10:53N 48°35' W 006°02'1810.5
2017-Dec-21 09:10N 48°51' W 005°48'310.1
2017-Dec-21 08:54N 48°53' W 005°46'9 9.3
2017-Dec-21 07:56N 48°59' W 005°36'4 8.7
2017-Dec-21 07:30N 49°01' W 005°31'4 8.4
2017-Dec-21 06:58N 49°04' W 005°25'8 7.8
2017-Dec-21 05:54N 49°08' W 005°14'3 7.6
2017-Dec-21 05:29N 49°09' W 005°10'4 7.6
2017-Dec-21 04:59N 49°11' W 005°05'4 7.7
2017-Dec-21 04:30N 49°13' W 005°00'4 7.7
2017-Dec-21 03:58N 49°15' W 004°55'4 8.1
2017-Dec-21 03:29N 49°17' W 004°50'5 8.6
2017-Dec-21 02:56N 49°20' W 004°44'5 8.9
2017-Dec-21 02:20N 49°23' W 004°37'3 9.5
2017-Dec-21 01:59N 49°24' W 004°32'12 9.9
2017-Dec-21 00:48N 49°30' W 004°17'810.2
2017-Dec-20 23:59N 49°35' W 004°06'10 9.9
2017-Dec-20 22:59N 49°40' W 003°53'16 9.0
2017-Dec-20 21:11N 49°48' W 003°31'3 8.3
2017-Dec-20 20:49N 49°49' W 003°27'3 8.0
2017-Dec-20 20:30N 49°50' W 003°23'4 7.9
2017-Dec-20 20:00N 49°52' W 003°18'4 7.9
2017-Dec-20 19:31N 49°54' W 003°13'8 8.1
2017-Dec-20 18:34N 49°58' W 003°02'0 8.6
2017-Dec-20 18:30N 49°58' W 003°02'4 8.8
2017-Dec-20 18:00N 50°00' W 002°56'5 9.5
2017-Dec-20 17:28N 50°02' W 002°48'510.2
2017-Dec-20 17:00N 50°03' W 002°41'510.9
2017-Dec-20 16:30N 50°05' W 002°33'611.6
2017-Dec-20 16:00N 50°06' W 002°24'612.3
2017-Dec-20 15:30N 50°08' W 002°15'612.8
2017-Dec-20 15:00N 50°10' W 002°05'713.0
2017-Dec-20 14:30N 50°12' W 001°56'612.8
2017-Dec-20 14:00N 50°14' W 001°46'1111.9
2017-Dec-20 13:03N 50°17' W 001°29'211.0
2017-Dec-20 12:50N 50°17' W 001°26'510.6
2017-Dec-20 12:24N 50°18' W 001°19'37 7.8
2017-Dec-20 07:44N 50°28' W 000°23'2 8.8
2017-Dec-20 07:30N 50°29' W 000°20'5 9.2
2017-Dec-20 07:00N 50°30' W 000°13'5 9.8
2017-Dec-20 06:31N 50°31' W 000°06'510.4
2017-Dec-20 06:01N 50°33' E 000°02'511.0
2017-Dec-20 05:31N 50°34' E 000°10'611.4
2017-Dec-20 05:00N 50°36' E 000°19'611.5
2017-Dec-20 04:31N 50°37' E 000°28'611.1
2017-Dec-20 04:00N 50°39' E 000°36'510.9
2017-Dec-20 03:30N 50°42' E 000°43'510.4
2017-Dec-20 03:01N 50°45' E 000°50'5 9.9
2017-Dec-20 02:30N 50°48' E 000°56'6 9.4
2017-Dec-20 01:55N 50°51' E 001°03'7 8.7
2017-Dec-20 01:03N 50°56' E 001°12'1 8.4
2017-Dec-20 00:58N 50°57' E 001°13'4 8.2
2017-Dec-20 00:29N 50°59' E 001°18'4 8.0
2017-Dec-20 00:00N 51°02' E 001°23'4 8.7
2017-Dec-19 23:30N 51°04' E 001°28'5 9.8
2017-Dec-19 23:01N 51°08' E 001°34'510.7
2017-Dec-19 22:31N 51°11' E 001°40'611.3
2017-Dec-19 22:01N 51°15' E 001°46'612.6
2017-Dec-19 21:31N 51°21' E 001°50'612.5
2017-Dec-19 21:00N 51°27' E 001°54'611.9
2017-Dec-19 20:30N 51°31' E 002°01'611.5
2017-Dec-19 20:00N 51°36' E 002°07'611.3
2017-Dec-19 19:30N 51°40' E 002°13'610.8
2017-Dec-19 18:56N 51°44' E 002°19'510.4
2017-Dec-19 18:30N 51°47' E 002°25'6 9.8
2017-Dec-19 17:55N 51°52' E 002°31'612.4
2017-Dec-19 17:28N 51°56' E 002°37'3 6.0
2017-Dec-19 17:01N 51°58' E 002°39'5 8.7
2017-Dec-19 16:28N 52°02' E 002°44'7 8.4
2017-Dec-19 15:39N 52°07' E 002°51'2 8.4
2017-Dec-19 15:29N 52°08' E 002°53'4 8.2
2017-Dec-19 14:56N 52°12' E 002°58'5 8.1
2017-Dec-19 14:21N 52°15' E 003°03'3 8.1
2017-Dec-19 13:59N 52°18' E 003°06'4 8.6
2017-Dec-19 13:30N 52°21' E 003°10'5 9.1
2017-Dec-19 13:00N 52°25' E 003°14'5 9.6
2017-Dec-19 12:30N 52°28' E 003°19'510.1
2017-Dec-19 12:00N 52°32' E 003°24'510.3
2017-Dec-19 11:28N 52°37' E 003°30'510.6
2017-Dec-19 11:00N 52°40' E 003°35'510.8
2017-Dec-19 10:30N 52°45' E 003°40'611.0
2017-Dec-19 09:57N 52°49' E 003°47'1610.6
2017-Dec-19 08:29N 53°00' E 004°05'7 9.8
2017-Dec-19 07:47N 53°05' E 004°13'3 9.4
2017-Dec-19 07:30N 53°07' E 004°17'6 9.0
2017-Dec-19 06:52N 53°11' E 004°23'20 8.5
2017-Dec-19 04:29N 53°30' E 004°35'6 9.5
2017-Dec-19 03:53N 53°35' E 004°38'134 9.7
2017-Dec-18 14:09N 55°32' E 006°30'43 8.8
2017-Dec-18 09:17N 56°11' E 007°03'2 8.6
2017-Dec-18 09:00N 56°13' E 007°04'4 8.1
2017-Dec-18 08:30N 56°17' E 007°07'4 8.1
2017-Dec-18 08:00N 56°21' E 007°10'4 8.1
2017-Dec-18 07:29N 56°24' E 007°14'4 8.4
2017-Dec-18 06:59N 56°28' E 007°15'4 7.5
2017-Dec-18 06:29N 56°31' E 007°20'3 6.8
2017-Dec-18 05:59N 56°34' E 007°24'3 5.9
2017-Dec-18 05:30N 56°36' E 007°27'3 5.6
2017-Dec-18 05:00N 56°39' E 007°30'3 5.2
2017-Dec-18 04:30N 56°41' E 007°33'2 4.8
2017-Dec-18 04:00N 56°43' E 007°35'3 4.9
2017-Dec-18 03:26N 56°45' E 007°39'3 5.0
2017-Dec-18 02:54N 56°46' E 007°43'113 7.9
2017-Dec-17 12:32N 57°48' E 010°39'010.1
2017-Dec-17 12:30N 57°48' E 010°39'5 9.7
2017-Dec-17 12:00N 57°47' E 010°48'510.2
2017-Dec-17 11:31N 57°44' E 010°55'510.2
2017-Dec-17 11:00N 57°40' E 011°02'510.4
2017-Dec-17 10:30N 57°37' E 011°09'510.4
2017-Dec-17 10:00N 57°33' E 011°16'510.6
2017-Dec-17 09:30N 57°29' E 011°23'510.4
2017-Dec-17 09:00N 57°25' E 011°28'510.1
2017-Dec-17 08:30N 57°20' E 011°31'510.0
2017-Dec-17 08:00N 57°15' E 011°34'510.1
2017-Dec-17 07:30N 57°10' E 011°37'2010.0
2017-Dec-17 05:29N 56°51' E 011°50'40 9.3
2017-Dec-17 01:11N 56°14' E 012°16'210.2
2017-Dec-17 01:00N 56°13' E 012°18'510.2
2017-Dec-17 00:31N 56°10' E 012°26'510.7
2017-Dec-17 00:00N 56°07' E 012°33'510.9
2017-Dec-16 23:31N 56°03' E 012°40'510.1
2017-Dec-16 23:01N 55°58' E 012°43'5 9.9
2017-Dec-16 22:30N 55°53' E 012°44'510.3
2017-Dec-16 22:00N 55°48' E 012°43'510.3
2017-Dec-16 21:30N 55°43' E 012°41'510.2
2017-Dec-16 21:00N 55°38' E 012°42'5 9.6
2017-Dec-16 20:31N 55°33' E 012°43'5 9.5
2017-Dec-16 20:00N 55°28' E 012°43'5 9.5
2017-Dec-16 19:30N 55°23' E 012°42'5 9.3
2017-Dec-16 19:00N 55°19' E 012°42'4 8.8
2017-Dec-16 18:30N 55°17' E 012°49'5 9.3
2017-Dec-16 18:00N 55°16' E 012°57'5 9.5
2017-Dec-16 17:30N 55°16' E 013°06'5 9.5
2017-Dec-16 17:00N 55°16' E 013°14'5 9.6
2017-Dec-16 16:30N 55°15' E 013°22'17 9.4
2017-Dec-16 14:40N 55°14' E 013°53'3 9.6
2017-Dec-16 14:21N 55°14' E 013°58'5 9.5
2017-Dec-16 13:48N 55°14' E 014°07'4 9.3
2017-Dec-16 13:20N 55°14' E 014°15'4 9.1
2017-Dec-16 12:55N 55°16' E 014°20'410.0
2017-Dec-16 12:30N 55°20' E 014°24'610.0
2017-Dec-16 11:52N 55°25' E 014°31'3 9.9
2017-Dec-16 11:30N 55°27' E 014°35'6 9.9
2017-Dec-16 10:54N 55°30' E 014°44'5 9.8
2017-Dec-16 10:21N 55°33' E 014°52'12 9.5
2017-Dec-16 09:05N 55°39' E 015°11'1 9.4
2017-Dec-16 09:00N 55°39' E 015°12'5 9.6
2017-Dec-16 08:30N 55°42' E 015°19'5 9.6
2017-Dec-16 08:00N 55°44' E 015°27'5 9.8
2017-Dec-16 07:30N 55°46' E 015°35'5 9.7
2017-Dec-16 07:00N 55°49' E 015°42'5 9.4
2017-Dec-16 06:30N 55°51' E 015°49'5 9.5
2017-Dec-16 06:00N 55°54' E 015°57'5 9.7
2017-Dec-16 05:30N 55°56' E 016°04'5 9.7
2017-Dec-16 05:00N 55°59' E 016°12'5 9.7
2017-Dec-16 04:30N 56°01' E 016°19'5 9.7
2017-Dec-16 04:00N 56°03' E 016°27'5 9.8
2017-Dec-16 03:30N 56°06' E 016°34'510.0
2017-Dec-16 03:00N 56°09' E 016°41'67 6.9
2017-Dec-15 17:17N 57°16' E 016°39'3 9.2
2017-Dec-15 17:00N 57°16' E 016°35'3 6.9
2017-Dec-15 16:30N 57°16' E 016°28'0 0.6
2017-Dec-15 15:58N 57°16' E 016°28'0 0.0
2017-Dec-15 15:28N 57°16' E 016°28'0 0.0
2017-Dec-15 14:58N 57°16' E 016°28'0 0.0
2017-Dec-15 14:25N 57°16' E 016°28'0 0.0
2017-Dec-15 13:58N 57°16' E 016°28'0 0.0
2017-Dec-15 13:28N 57°16' E 016°28'0 0.0
2017-Dec-15 12:58N 57°16' E 016°28'0 0.0
2017-Dec-15 12:28N 57°16' E 016°28'0 0.0
2017-Dec-15 11:58N 57°16' E 016°28'0 0.0
2017-Dec-15 11:28N 57°16' E 016°28'0 0.0
2017-Dec-15 10:58N 57°16' E 016°28'0 0.0
2017-Dec-15 10:28N 57°16' E 016°28'0 0.0
2017-Dec-15 09:58N 57°16' E 016°28'0 0.0
2017-Dec-15 09:28N 57°16' E 016°28'0 0.0
2017-Dec-15 08:58N 57°16' E 016°28'0 0.0
2017-Dec-15 08:28N 57°16' E 016°28'0 0.0
2017-Dec-15 07:58N 57°16' E 016°28'0 0.0
2017-Dec-15 07:28N 57°16' E 016°28'0 0.0
2017-Dec-15 06:58N 57°16' E 016°28'0 0.0
2017-Dec-15 06:28N 57°16' E 016°28'0 0.0
2017-Dec-15 05:58N 57°16' E 016°28'0 0.0
2017-Dec-15 05:28N 57°16' E 016°28'0 0.0
2017-Dec-15 04:58N 57°16' E 016°28'0 0.0
2017-Dec-15 04:28N 57°16' E 016°28'0 0.0
2017-Dec-15 03:58N 57°16' E 016°28'0 0.0
2017-Dec-15 02:28N 57°16' E 016°28'0 0.0
2017-Dec-15 00:58N 57°16' E 016°28'0 0.0
2017-Dec-15 00:28N 57°16' E 016°28'0 0.0
2017-Dec-14 18:28N 57°16' E 016°28'0 0.0
2017-Dec-14 17:58N 57°16' E 016°28'0 0.0
2017-Dec-14 17:28N 57°16' E 016°28'0 0.0
2017-Dec-14 16:55N 57°16' E 016°28'0 0.0
2017-Dec-14 16:28N 57°16' E 016°28'0 0.0
2017-Dec-14 15:58N 57°16' E 016°28'0 0.0
2017-Dec-14 14:58N 57°16' E 016°28'0 0.0
2017-Dec-14 14:28N 57°16' E 016°28'0 0.0
2017-Dec-14 13:58N 57°16' E 016°28'0 0.0
2017-Dec-14 13:28N 57°16' E 016°28'0 0.0
2017-Dec-14 12:58N 57°16' E 016°28'0 0.0
2017-Dec-14 12:28N 57°16' E 016°28'0 0.0
2017-Dec-14 11:58N 57°16' E 016°28'0 0.0
2017-Dec-14 11:28N 57°16' E 016°28'0 0.0
2017-Dec-14 10:58N 57°16' E 016°28'0 0.0
2017-Dec-14 10:28N 57°16' E 016°28'0 0.0
2017-Dec-14 09:58N 57°16' E 016°28'0 0.0
2017-Dec-14 09:28N 57°16' E 016°28'0 0.0
2017-Dec-14 08:58N 57°16' E 016°28'0 0.0
2017-Dec-14 08:28N 57°16' E 016°28'0 0.0
2017-Dec-14 07:58N 57°16' E 016°28'0 0.0
2017-Dec-14 07:28N 57°16' E 016°28'0 0.0
2017-Dec-14 06:58N 57°16' E 016°28'0 0.0
2017-Dec-14 06:28N 57°16' E 016°28'0 0.0
2017-Dec-14 05:58N 57°16' E 016°28'0 0.0
2017-Dec-14 05:28N 57°16' E 016°28'0 0.0
2017-Dec-14 04:58N 57°16' E 016°28'0 0.0
2017-Dec-14 04:28N 57°16' E 016°28'0 0.0
2017-Dec-14 03:58N 57°16' E 016°28'0 0.0
2017-Dec-14 03:28N 57°16' E 016°28'0 0.0
2017-Dec-14 02:58N 57°16' E 016°28'0 0.0
2017-Dec-14 02:28N 57°16' E 016°28'  

Dump ship's entire track history